createdAt,value
2023-05-21T00:00:18.755Z,10.69
2023-05-21T00:02:33.030Z,10.68
2023-05-21T00:04:48.440Z,10.62
2023-05-21T00:07:00.586Z,10.56
2023-05-21T00:09:13.386Z,10.54
2023-05-21T00:11:30.752Z,10.54
2023-05-21T00:13:42.290Z,10.53
2023-05-21T00:15:51.764Z,10.48
2023-05-21T00:18:07.393Z,10.41
2023-05-21T00:20:18.074Z,10.38
2023-05-21T00:22:30.552Z,10.32
2023-05-21T00:24:49.696Z,10.25
2023-05-21T00:27:02.274Z,10.27
2023-05-21T00:29:12.256Z,10.26
2023-05-21T00:31:23.486Z,10.23
2023-05-21T00:33:33.344Z,10.23
2023-05-21T00:35:41.871Z,10.2
2023-05-21T00:37:59.912Z,10.18
2023-05-21T00:40:14.280Z,10.15
2023-05-21T00:42:22.496Z,10.12
2023-05-21T00:44:33.425Z,10.09
2023-05-21T00:46:50.332Z,10.06
2023-05-21T00:49:04.630Z,10.03
2023-05-21T00:51:22.618Z,9.99
2023-05-21T00:53:36.924Z,9.97
2023-05-21T00:55:44.323Z,9.98
2023-05-21T00:57:52.126Z,9.98
2023-05-21T01:00:04.789Z,9.93
2023-05-21T01:02:15.533Z,9.89
2023-05-21T01:04:26.113Z,9.88
2023-05-21T01:06:35.111Z,9.91
2023-05-21T01:08:45.715Z,9.89
2023-05-21T01:10:57.147Z,9.84
2023-05-21T01:13:10.088Z,9.78
2023-05-21T01:15:19.467Z,9.76
2023-05-21T01:17:29.198Z,9.73
2023-05-21T01:19:40.171Z,9.68
2023-05-21T01:21:51.746Z,9.61
2023-05-21T01:24:01.436Z,9.59
2023-05-21T01:26:13.973Z,9.57
2023-05-21T01:28:21.707Z,9.54
2023-05-21T01:30:38.790Z,9.53
2023-05-21T01:32:51.724Z,9.47
2023-05-21T01:35:00.496Z,9.42
2023-05-21T01:37:09.208Z,9.4
2023-05-21T01:39:16.331Z,9.38
2023-05-21T01:41:27.694Z,9.33
2023-05-21T01:43:44.391Z,9.3
2023-05-21T01:45:56.269Z,9.26
2023-05-21T01:48:18.022Z,9.21
2023-05-21T01:50:30.975Z,9.19
2023-05-21T01:52:45.215Z,9.17
2023-05-21T01:55:00.806Z,9.11
2023-05-21T01:57:19.581Z,9.07
2023-05-21T01:59:27.391Z,9.06
2023-05-21T02:01:41.774Z,9.03
2023-05-21T02:03:57.171Z,9.04
2023-05-21T02:06:20.371Z,9.01
2023-05-21T02:08:56.210Z,8.97
2023-05-21T02:11:33.779Z,8.96
2023-05-21T02:13:48.856Z,8.91
2023-05-21T02:16:07.495Z,8.85
2023-05-21T02:18:38.052Z,8.81
2023-05-21T02:21:04.609Z,8.74
2023-05-21T02:23:46.779Z,8.73
2023-05-21T02:26:11.690Z,8.69
2023-05-21T02:28:32.227Z,8.67
2023-05-21T02:30:47.554Z,8.62
2023-05-21T02:33:09.576Z,8.61
2023-05-21T02:35:35.924Z,8.57
2023-05-21T02:38:11.742Z,8.53
2023-05-21T02:40:34.807Z,8.53
2023-05-21T02:42:57.215Z,8.53
2023-05-21T02:45:11.686Z,8.52
2023-05-21T02:47:53.188Z,8.48
2023-05-21T02:50:14.827Z,8.51
2023-05-21T02:52:38.854Z,8.51
2023-05-21T02:59:48.204Z,8.47
2023-05-21T03:03:01.625Z,8.5
2023-05-21T03:09:37.706Z,8.55
2023-05-21T03:15:54.733Z,8.62
2023-05-21T03:23:30.654Z,8.62
2023-05-21T03:26:30.136Z,8.67
2023-05-21T03:35:54.665Z,8.89
2023-05-21T03:38:20.691Z,8.95
2023-05-21T03:41:07.648Z,9.02
2023-05-21T03:43:47.551Z,9.1
2023-05-21T03:46:10.787Z,9.15
2023-05-21T03:48:34.709Z,9.24
2023-05-21T03:50:53.381Z,9.33
2023-05-21T03:53:12.954Z,9.42
2023-05-21T03:55:35.484Z,9.5
2023-05-21T03:57:48.728Z,9.57
2023-05-21T04:00:34.825Z,9.68
2023-05-21T04:03:03.617Z,9.77
2023-05-21T04:05:22.839Z,9.85
2023-05-21T04:07:35.717Z,9.92
2023-05-21T04:09:59.787Z,10.03
2023-05-21T04:12:18.546Z,10.1
2023-05-21T04:14:41.225Z,10.24
2023-05-21T04:16:59.897Z,10.36
2023-05-21T04:19:16.685Z,10.46
2023-05-21T04:21:36.991Z,10.55
2023-05-21T04:23:54.877Z,10.7
2023-05-21T04:26:13.750Z,10.82
2023-05-21T04:28:45.471Z,10.91
2023-05-21T04:30:58.249Z,11.04
2023-05-21T04:33:25.739Z,11.14
2023-05-21T04:35:41.638Z,11.26
2023-05-21T04:37:55.782Z,11.34
2023-05-21T04:40:19.579Z,11.45
2023-05-21T04:42:28.018Z,11.56
2023-05-21T04:44:43.826Z,11.67
2023-05-21T04:46:52.194Z,11.73
2023-05-21T04:49:03.256Z,11.79
2023-05-21T04:51:26.427Z,11.96
2023-05-21T04:53:49.538Z,12.25
2023-05-21T04:56:05.315Z,12.44
2023-05-21T04:58:17.378Z,12.56
2023-05-21T05:00:58.428Z,12.78
2023-05-21T05:03:12.294Z,13.04
2023-05-21T05:05:37.970Z,13.1
2023-05-21T05:07:51.722Z,13.12
2023-05-21T05:12:41.207Z,13.38
2023-05-21T05:15:01.912Z,13.51
2023-05-21T05:17:14.953Z,13.59
2023-05-21T05:19:29.497Z,13.83
2023-05-21T05:22:13.714Z,13.93
2023-05-21T05:37:56.579Z,14.75
2023-05-21T06:41:28.226Z,17.36
2023-05-21T07:28:37.599Z,19.7
2023-05-21T07:31:25.789Z,19.87
2023-05-21T07:37:01.041Z,20.36
2023-05-21T07:39:34.095Z,20.51
2023-05-21T07:41:58.086Z,20.6
2023-05-21T07:44:05.680Z,20.68
2023-05-21T07:46:28.055Z,20.87
2023-05-21T07:48:45.051Z,21.16
2023-05-21T07:51:07.376Z,21.35
2023-05-21T07:53:17.316Z,21.51
2023-05-21T07:55:23.890Z,21.73
2023-05-21T07:57:34.838Z,22.06
2023-05-21T07:59:44.252Z,22.37
2023-05-21T08:01:52.408Z,22.59
2023-05-21T08:04:01.487Z,22.64
2023-05-21T08:06:11.911Z,22.77
2023-05-21T08:08:47.656Z,22.72
2023-05-21T08:10:54.501Z,22.69
2023-05-21T08:13:02.473Z,22.18
2023-05-21T08:15:13.572Z,22.33
2023-05-21T08:17:22.530Z,22.79
2023-05-21T08:19:34.323Z,22.79
2023-05-21T08:21:45.174Z,22.62
2023-05-21T08:24:02.332Z,23.1
2023-05-21T08:26:10.565Z,23.22
2023-05-21T08:28:18.876Z,23.12
2023-05-21T08:32:55.930Z,23.31
2023-05-21T08:35:07.423Z,23.49
2023-05-21T08:37:16.303Z,23.41
2023-05-21T08:39:24.200Z,23.74
2023-05-21T08:41:33.533Z,23.8
2023-05-21T08:43:55.660Z,23.75
2023-05-21T08:46:07.891Z,24.1
2023-05-21T08:48:17.316Z,24.37
2023-05-21T08:50:26.498Z,24.16
2023-05-21T08:52:39.532Z,23.95
2023-05-21T08:54:51.430Z,24.16
2023-05-21T08:56:59.794Z,24.51
2023-05-21T09:01:30.272Z,23.74
2023-05-21T09:03:38.850Z,24.31
2023-05-21T09:05:49.936Z,24.63
2023-05-21T09:08:13.128Z,24.62
2023-05-21T09:10:21.291Z,24.81
2023-05-21T09:12:28.721Z,25.15
2023-05-21T09:14:35.632Z,25.03
2023-05-21T09:16:44.259Z,25.28
2023-05-21T09:18:54.153Z,25.17
2023-05-21T09:21:07.074Z,24.79
2023-05-21T09:23:15.129Z,24.92
2023-05-21T09:25:23.538Z,25.29
2023-05-21T09:27:32.057Z,25.52
2023-05-21T09:29:40.790Z,25.07
2023-05-21T09:31:48.438Z,25.69
2023-05-21T09:34:00.097Z,25.17
2023-05-21T09:36:09.163Z,24.95
2023-05-21T09:38:17.206Z,25.06
2023-05-21T09:40:25.701Z,25.24
2023-05-21T09:42:37.409Z,25.38
2023-05-21T09:44:49.752Z,25.88
2023-05-21T09:47:03.908Z,26.59
2023-05-21T09:49:30.038Z,26.45
2023-05-21T09:51:37.119Z,25.84
2023-05-21T09:53:45.483Z,26.32
2023-05-21T09:55:53.789Z,25.56
2023-05-21T09:58:03.581Z,25.41
2023-05-21T10:00:12.692Z,24.8
2023-05-21T10:02:20.705Z,24.93
2023-05-21T10:04:29.869Z,25.9
2023-05-21T10:06:38.458Z,25.76
2023-05-21T10:08:47.923Z,26.7
2023-05-21T10:10:56.301Z,26.68
2023-05-21T10:13:03.517Z,26.89
2023-05-21T10:15:22.372Z,27.49
2023-05-21T10:17:31.506Z,26.83
2023-05-21T10:19:40.915Z,26.52
2023-05-21T10:21:50.006Z,26.44
2023-05-21T10:24:02.128Z,26.12
2023-05-21T10:26:10.448Z,27.49
2023-05-21T10:28:20.093Z,26.75
2023-05-21T10:30:28.852Z,27.4
2023-05-21T10:32:36.981Z,28.66
2023-05-21T10:34:46.624Z,28.23
2023-05-21T10:36:54.398Z,26.63
2023-05-21T10:39:04.920Z,26.63
2023-05-21T10:41:18.616Z,26.92
2023-05-21T10:43:29.894Z,26.42
2023-05-21T10:45:39.098Z,27.57
2023-05-21T10:47:47.638Z,27.4
2023-05-21T10:49:58.635Z,27.7
2023-05-21T10:52:06.706Z,27.34
2023-05-21T10:54:15.029Z,26.34
2023-05-21T10:56:23.078Z,26.33
2023-05-21T10:58:31.032Z,26.48
2023-05-21T11:00:39.140Z,27.27
2023-05-21T11:02:47.895Z,26.69
2023-05-21T11:04:57.176Z,26.51
2023-05-21T11:07:03.867Z,27.73
2023-05-21T11:09:11.212Z,27.5
2023-05-21T11:11:19.182Z,27.96
2023-05-21T11:13:30.383Z,26.67
2023-05-21T11:15:39.484Z,26.98
2023-05-21T11:17:48.705Z,26.59
2023-05-21T11:20:00.978Z,26.94
2023-05-21T11:22:09.062Z,27.93
2023-05-21T11:24:20.550Z,28.52
2023-05-21T11:26:30.706Z,28.11
2023-05-21T11:28:40.083Z,28.61
2023-05-21T11:30:48.995Z,26.75
2023-05-21T11:32:58.909Z,27.07
2023-05-21T11:35:07.765Z,28.77
2023-05-21T11:37:17.152Z,28.62
2023-05-21T11:39:26.081Z,27.64
2023-05-21T11:41:33.537Z,26.98
2023-05-21T11:43:40.811Z,26.34
2023-05-21T11:45:49.496Z,27.37
2023-05-21T11:47:58.225Z,28.43
2023-05-21T11:50:06.692Z,27.74
2023-05-21T11:52:16.279Z,28.47
2023-05-21T11:54:24.783Z,27.42
2023-05-21T11:56:33.450Z,27.72
2023-05-21T11:58:41.138Z,27.21
2023-05-21T12:00:49.322Z,27.63
2023-05-21T12:02:58.113Z,28.29
2023-05-21T12:05:06.630Z,27.5
2023-05-21T12:07:17.063Z,27.6
2023-05-21T12:09:25.553Z,27.78
2023-05-21T12:11:33.857Z,26.57
2023-05-21T12:13:41.552Z,27.38
2023-05-21T12:15:50.568Z,28.27
2023-05-21T12:17:58.794Z,28.17
2023-05-21T12:20:07.806Z,28.26
2023-05-21T12:22:16.914Z,28.25
2023-05-21T12:24:25.238Z,28.81
2023-05-21T12:26:33.859Z,29.16
2023-05-21T12:28:41.298Z,28.21
2023-05-21T12:30:50.123Z,28.27
2023-05-21T12:32:57.693Z,28.94
2023-05-21T12:35:05.315Z,28.69
2023-05-21T12:37:14.621Z,28.44
2023-05-21T12:39:25.211Z,29.02
2023-05-21T12:41:34.354Z,28.31
2023-05-21T12:43:42.632Z,28.99
2023-05-21T12:45:50.799Z,28.4
2023-05-21T12:47:59.423Z,28.56
2023-05-21T12:50:08.469Z,29.06
2023-05-21T12:52:16.499Z,28.02
2023-05-21T12:54:27.108Z,27.89
2023-05-21T12:56:37.819Z,28.37
2023-05-21T12:58:48.493Z,28.59
2023-05-21T13:00:56.937Z,28.69
2023-05-21T13:03:09.015Z,28.65
2023-05-21T13:05:16.961Z,28.48
2023-05-21T13:07:25.523Z,28.88
2023-05-21T13:09:35.191Z,28.67
2023-05-21T13:11:43.686Z,28.6
2023-05-21T13:13:55.071Z,27.5
2023-05-21T13:16:05.678Z,27.31
2023-05-21T13:18:14.147Z,26.8
2023-05-21T13:20:23.449Z,28.06
2023-05-21T13:22:32.397Z,27.91
2023-05-21T13:24:40.677Z,28.55
2023-05-21T13:26:50.229Z,28.42
2023-05-21T13:28:58.965Z,28.04
2023-05-21T13:31:07.654Z,27.66
2023-05-21T13:33:18.309Z,29.03
2023-05-21T13:35:27.861Z,27.98
2023-05-21T13:37:37.257Z,28.11
2023-05-21T13:39:48.242Z,27.17
2023-05-21T13:41:56.875Z,28.48
2023-05-21T13:44:05.728Z,28.43
2023-05-21T13:46:14.441Z,27.33
2023-05-21T13:48:26.551Z,27.13
2023-05-21T13:50:36.180Z,27.06
2023-05-21T13:52:44.699Z,27.39
2023-05-21T13:54:53.271Z,27.76
2023-05-21T13:57:02.682Z,27.02
2023-05-21T13:59:10.951Z,28.2
2023-05-21T14:01:18.414Z,26.96
2023-05-21T14:03:25.897Z,27.23
2023-05-21T14:05:34.967Z,28.27
2023-05-21T14:07:43.360Z,27.47
2023-05-21T14:09:57.706Z,28.31
2023-05-21T14:12:06.667Z,27.98
2023-05-21T14:14:15.191Z,28.79
2023-05-21T14:16:23.509Z,27.39
2023-05-21T14:18:35.287Z,26.73
2023-05-21T14:20:43.873Z,27.62
2023-05-21T14:22:53.318Z,28.8
2023-05-21T14:25:01.348Z,28.09
2023-05-21T14:27:15.201Z,26.87
2023-05-21T14:29:23.943Z,26.59
2023-05-21T14:31:33.275Z,26.67
2023-05-21T14:33:42.439Z,26.98
2023-05-21T14:35:51.586Z,27.34
2023-05-21T14:38:01.085Z,27.16
2023-05-21T14:40:11.459Z,26.32
2023-05-21T14:42:19.459Z,26.33
2023-05-21T14:44:29.137Z,25.6
2023-05-21T14:46:37.252Z,25.32
2023-05-21T14:48:46.011Z,25.1
2023-05-21T14:50:58.501Z,25.02
2023-05-21T14:53:10.741Z,25.01
2023-05-21T14:55:18.808Z,24.52
2023-05-21T14:57:30.337Z,24.25
2023-05-21T14:59:39.807Z,23.94
2023-05-21T15:01:49.133Z,23.51
2023-05-21T15:04:00.090Z,23.69
2023-05-21T15:06:13.826Z,23.72
2023-05-21T15:08:24.597Z,23.67
2023-05-21T15:10:33.106Z,23.61
2023-05-21T15:12:45.818Z,23.56
2023-05-21T15:14:54.744Z,23.44
2023-05-21T15:17:04.717Z,23.39
2023-05-21T15:19:14.190Z,23.57
2023-05-21T15:21:26.553Z,23.89
2023-05-21T15:23:39.899Z,24.08
2023-05-21T15:25:50.624Z,23.78
2023-05-21T15:28:03.018Z,23.69
2023-05-21T15:30:11.652Z,23.55
2023-05-21T15:32:21.068Z,23.47
2023-05-21T15:34:32.625Z,23.73
2023-05-21T15:39:20.765Z,24.07
2023-05-21T15:41:29.218Z,24.21
2023-05-21T15:43:41.061Z,24.16
2023-05-21T15:45:52.285Z,24.13
2023-05-21T15:48:02.996Z,23.94
2023-05-21T15:50:12.283Z,23.88
2023-05-21T15:52:22.578Z,23.97
2023-05-21T15:54:31.203Z,24.74
2023-05-21T15:56:40.570Z,24.82
2023-05-21T15:58:53.509Z,24.86
2023-05-21T16:01:05.000Z,24.48
2023-05-21T16:03:13.862Z,24.41
2023-05-21T16:05:25.876Z,24.47
2023-05-21T16:07:36.989Z,24.83
2023-05-21T16:09:45.959Z,25.26
2023-05-21T16:11:54.422Z,24.81
2023-05-21T16:14:02.252Z,24.07
2023-05-21T16:16:10.549Z,23.42
2023-05-21T16:18:18.933Z,23.13
2023-05-21T16:20:28.210Z,22.85
2023-05-21T16:22:37.971Z,22.73
2023-05-21T16:24:46.497Z,22.45
2023-05-21T16:26:55.922Z,22.29
2023-05-21T16:29:03.713Z,22.23
2023-05-21T16:31:12.199Z,22.18
2023-05-21T16:33:21.363Z,22.15
2023-05-21T16:35:29.293Z,22
2023-05-21T16:37:38.355Z,21.96
2023-05-21T16:39:47.049Z,21.82
2023-05-21T16:41:56.353Z,21.76
2023-05-21T16:44:04.811Z,21.75
2023-05-21T16:46:15.029Z,21.6
2023-05-21T16:48:23.715Z,21.5
2023-05-21T16:50:31.823Z,21.5
2023-05-21T16:52:41.026Z,21.38
2023-05-21T16:54:49.791Z,21.18
2023-05-21T16:56:58.968Z,21.15
2023-05-21T16:59:07.990Z,21.05
2023-05-21T17:01:16.817Z,20.98
2023-05-21T17:03:28.523Z,20.88
2023-05-21T17:05:38.370Z,20.78
2023-05-21T17:07:47.958Z,20.69
2023-05-21T17:09:57.145Z,20.61
2023-05-21T17:14:34.083Z,20.46
2023-05-21T17:16:45.758Z,20.42
2023-05-21T17:18:54.602Z,20.41
2023-05-21T17:21:02.503Z,20.39
2023-05-21T17:23:12.290Z,20.2
2023-05-21T17:25:23.595Z,20.13
2023-05-21T17:27:37.481Z,19.95
2023-05-21T17:29:45.665Z,19.8
2023-05-21T17:31:53.892Z,19.75
2023-05-21T17:34:05.346Z,19.63
2023-05-21T17:36:14.515Z,19.41
2023-05-21T17:38:22.824Z,19.26
2023-05-21T17:40:30.746Z,19.04
2023-05-21T17:42:40.260Z,18.86
2023-05-21T17:44:48.573Z,18.69
2023-05-21T17:46:58.199Z,18.5
2023-05-21T17:49:10.016Z,18.32
2023-05-21T17:51:18.293Z,18.14
2023-05-21T17:53:26.046Z,17.95
2023-05-21T17:55:35.170Z,17.74
2023-05-21T17:57:44.196Z,17.56
2023-05-21T17:59:52.555Z,17.39
2023-05-21T18:02:00.731Z,17.19
2023-05-21T18:04:08.865Z,17
2023-05-21T18:06:17.102Z,16.82
2023-05-21T18:08:26.679Z,16.63
2023-05-21T18:10:35.265Z,16.45
2023-05-21T18:12:44.494Z,16.24
2023-05-21T18:14:52.633Z,16.08
2023-05-21T18:17:01.028Z,15.91
2023-05-21T18:19:09.667Z,15.76
2023-05-21T18:23:43.871Z,15.43
2023-05-21T18:25:52.852Z,15.25
2023-05-21T18:28:02.750Z,15.12
2023-05-21T18:30:10.681Z,14.96
2023-05-21T18:32:19.163Z,14.8
2023-05-21T18:34:29.552Z,14.65
2023-05-21T18:36:41.781Z,14.51
2023-05-21T18:41:14.247Z,14.19
2023-05-21T18:43:25.650Z,14.05
2023-05-21T18:45:35.409Z,13.88
2023-05-21T18:47:45.309Z,13.77
2023-05-21T18:49:53.605Z,13.65
2023-05-21T18:52:02.457Z,13.55
2023-05-21T18:54:11.487Z,13.43
2023-05-21T18:56:20.146Z,13.32
2023-05-21T18:58:28.372Z,13.22
2023-05-21T19:00:38.786Z,13.11
2023-05-21T19:02:47.284Z,12.98
2023-05-21T19:04:56.112Z,12.86
2023-05-21T19:07:04.620Z,12.77
2023-05-21T19:09:15.410Z,12.66
2023-05-21T19:11:23.833Z,12.57
2023-05-21T19:13:34.189Z,12.47
2023-05-21T19:15:43.188Z,12.36
2023-05-21T19:17:52.029Z,12.28
2023-05-21T19:20:01.592Z,12.19
2023-05-21T19:22:10.153Z,12.13
2023-05-21T19:24:18.306Z,12.06
2023-05-21T19:26:29.697Z,11.98
2023-05-21T19:28:38.002Z,11.89
2023-05-21T19:30:48.176Z,11.82
2023-05-21T19:32:56.864Z,11.73
2023-05-21T19:35:06.069Z,11.63
2023-05-21T19:37:15.332Z,11.59
2023-05-21T19:39:26.879Z,11.53
2023-05-21T19:41:35.692Z,11.45
2023-05-21T19:43:45.753Z,11.37
2023-05-21T19:45:55.420Z,11.27
2023-05-21T19:48:04.701Z,11.23
2023-05-21T19:50:14.612Z,11.2
2023-05-21T19:52:22.847Z,11.18
2023-05-21T19:54:30.775Z,11.14
2023-05-21T19:56:40.338Z,11.11
2023-05-21T19:58:48.358Z,11.06
2023-05-21T20:00:56.004Z,11.03
2023-05-21T20:03:04.790Z,10.97
2023-05-21T20:05:17.103Z,10.93
2023-05-21T20:07:25.068Z,10.87
2023-05-21T20:09:33.621Z,10.82
2023-05-21T20:11:41.709Z,10.77
2023-05-21T20:13:51.101Z,10.7
2023-05-21T20:16:00.034Z,10.63
2023-05-21T20:18:07.822Z,10.53
2023-05-21T20:20:16.585Z,10.45
2023-05-21T20:22:25.528Z,10.37
2023-05-21T20:24:33.732Z,10.31
2023-05-21T20:26:43.148Z,10.26
2023-05-21T20:28:51.442Z,10.2
2023-05-21T20:30:59.736Z,10.13
2023-05-21T20:33:08.196Z,10.09
2023-05-21T20:35:19.812Z,10.06
2023-05-21T20:37:28.492Z,10.1
2023-05-21T20:39:36.689Z,10.06
2023-05-21T20:41:44.868Z,10.04
2023-05-21T20:43:53.760Z,9.97
2023-05-21T20:46:02.113Z,9.91
2023-05-21T20:48:11.826Z,9.88
2023-05-21T20:50:19.942Z,9.86
2023-05-21T20:52:29.291Z,9.82
2023-05-21T20:54:37.149Z,9.79
2023-05-21T20:56:47.227Z,9.79
2023-05-21T20:58:55.571Z,9.76
2023-05-21T21:01:03.351Z,9.71
2023-05-21T21:03:11.684Z,9.65
2023-05-21T21:05:19.517Z,9.58
2023-05-21T21:07:27.324Z,9.61
2023-05-21T21:09:37.990Z,9.6
2023-05-21T21:11:45.825Z,9.58
2023-05-21T21:13:55.607Z,9.59
2023-05-21T21:16:04.138Z,9.57
2023-05-21T21:18:12.728Z,9.55
2023-05-21T21:20:23.961Z,9.54
2023-05-21T21:22:32.572Z,9.53
2023-05-21T21:24:40.032Z,9.52
2023-05-21T21:26:52.458Z,9.54
2023-05-21T21:29:00.744Z,9.51
2023-05-21T21:31:09.979Z,9.47
2023-05-21T21:33:21.960Z,9.44
2023-05-21T21:35:29.580Z,9.38
2023-05-21T21:37:37.458Z,9.35
2023-05-21T21:39:45.365Z,9.34
2023-05-21T21:41:53.385Z,9.29
2023-05-21T21:44:00.492Z,9.27
2023-05-21T21:46:08.967Z,9.3
2023-05-21T21:48:17.559Z,9.32
2023-05-21T21:50:26.242Z,9.34
2023-05-21T21:52:34.254Z,9.29
2023-05-21T21:54:42.781Z,9.27
2023-05-21T21:56:50.868Z,9.25
2023-05-21T21:58:58.783Z,9.19
2023-05-21T22:01:07.043Z,9.13
2023-05-21T22:03:17.050Z,9.08
2023-05-21T22:05:24.719Z,9.02
2023-05-21T22:07:31.860Z,8.98
2023-05-21T22:09:38.833Z,8.96
2023-05-21T22:11:45.774Z,8.94
2023-05-21T22:13:53.078Z,8.93
2023-05-21T22:15:59.804Z,8.91
2023-05-21T22:18:06.716Z,8.9
2023-05-21T22:20:14.844Z,8.86
2023-05-21T22:22:24.607Z,8.87
2023-05-21T22:24:33.339Z,8.9
2023-05-21T22:26:40.879Z,8.92
2023-05-21T22:28:48.177Z,8.91
2023-05-21T22:30:55.042Z,8.9
2023-05-21T22:33:02.662Z,8.91
2023-05-21T22:35:09.441Z,8.89
2023-05-21T22:37:18.227Z,8.91
2023-05-21T22:39:24.972Z,8.9
2023-05-21T22:41:32.615Z,8.89
2023-05-21T22:43:39.534Z,8.88
2023-05-21T22:45:46.067Z,8.87
2023-05-21T22:47:53.117Z,8.85
2023-05-21T22:50:01.479Z,8.86
2023-05-21T22:52:10.640Z,8.85
2023-05-21T22:54:18.682Z,8.82
2023-05-21T22:56:25.800Z,8.79
2023-05-21T22:58:33.159Z,8.76
2023-05-21T23:00:40.822Z,8.72
2023-05-21T23:02:54.159Z,8.66
2023-05-21T23:05:01.729Z,8.62
2023-05-21T23:07:09.358Z,8.63
2023-05-21T23:09:17.181Z,8.63
2023-05-21T23:11:24.712Z,8.63
2023-05-21T23:13:31.745Z,8.64
2023-05-21T23:15:39.227Z,8.62
2023-05-21T23:17:46.433Z,8.58
2023-05-21T23:19:53.273Z,8.57
2023-05-21T23:22:00.930Z,8.55
2023-05-21T23:24:07.805Z,8.52
2023-05-21T23:26:15.488Z,8.5
2023-05-21T23:28:22.781Z,8.47
2023-05-21T23:30:30.114Z,8.45
2023-05-21T23:32:37.487Z,8.41
2023-05-21T23:34:45.421Z,8.38
2023-05-21T23:36:52.728Z,8.35
2023-05-21T23:39:02.761Z,8.31
2023-05-21T23:41:10.030Z,8.28
2023-05-21T23:43:17.836Z,8.25
2023-05-21T23:45:27.049Z,8.22
2023-05-21T23:47:34.380Z,8.19
2023-05-21T23:49:41.688Z,8.15
2023-05-21T23:51:48.953Z,8.15
2023-05-21T23:53:55.934Z,8.14
2023-05-21T23:56:02.214Z,8.12
2023-05-21T23:58:09.978Z,8.12
